Terminal Aerodrome Forecast
Issued by NWS

Home | Current Version | Previous Version | Graphics & Text | Print | Product List | Glossary On
Versions: 1 2 3 4 5 6 7 8 9 10 11 12 13 14 15 16 17 18 19 20 21 22 23 24 25
000
FTUS42 KMHX 031137
TAFOAJ
TAF
KOAJ 031137Z 0312/0412 VRB02KT 3SM BR SCT050
      TEMPO 0312/0313 2SM BR
     FM031300 27005KT P6SM SCT050
     FM031800 23006KT P6SM VCSH BKN050
     FM032300 20004KT P6SM SCT050
     FM040800 VRB02KT 5SM BR SCT050
      AMD LTD TO CLD VIS AND WIND=

USA.gov is the U.S. government's official web portal to all federal, state and local government web resources and services.